createdAt,value
2023-02-13T00:00:36.001Z,7.11
2023-02-13T00:03:04.520Z,7.05
2023-02-13T00:05:31.597Z,7.02
2023-02-13T00:07:58.612Z,6.99
2023-02-13T00:10:25.666Z,6.97
2023-02-13T00:12:52.568Z,6.94
2023-02-13T00:15:19.737Z,6.94
2023-02-13T00:17:46.769Z,6.89
2023-02-13T00:20:14.188Z,6.93
2023-02-13T00:22:41.936Z,6.96
2023-02-13T00:25:09.506Z,6.96
2023-02-13T00:27:36.478Z,6.99
2023-02-13T00:30:05.049Z,7.02
2023-02-13T00:32:32.189Z,7.06
2023-02-13T00:34:59.371Z,7.06
2023-02-13T00:37:26.685Z,7.03
2023-02-13T00:39:53.882Z,7.03
2023-02-13T00:42:24.044Z,7.02
2023-02-13T00:44:51.081Z,7.02
2023-02-13T00:47:18.614Z,7.00
2023-02-13T00:49:45.756Z,7.02
2023-02-13T00:52:13.110Z,7.00
2023-02-13T00:54:40.043Z,6.96
2023-02-13T00:57:07.213Z,6.96
2023-02-13T00:59:35.148Z,6.95
2023-02-13T01:02:02.266Z,6.94
2023-02-13T01:04:29.357Z,6.91
2023-02-13T01:06:57.759Z,6.91
2023-02-13T01:09:25.499Z,6.86
2023-02-13T01:11:52.556Z,6.88
2023-02-13T01:14:19.589Z,6.91
2023-02-13T01:16:48.269Z,6.93
2023-02-13T01:19:15.709Z,6.97
2023-02-13T01:21:44.181Z,6.97
2023-02-13T01:24:11.348Z,7.00
2023-02-13T01:26:38.309Z,7.02
2023-02-13T01:29:05.586Z,7.00
2023-02-13T01:31:33.604Z,7.02
2023-02-13T01:34:00.602Z,7.04
2023-02-13T01:36:27.660Z,7.08
2023-02-13T01:38:57.498Z,7.06
2023-02-13T01:41:26.688Z,7.08
2023-02-13T01:43:59.020Z,7.05
2023-02-13T01:46:37.851Z,7.09
2023-02-13T01:49:18.527Z,7.05
2023-02-13T01:51:47.402Z,7.05
2023-02-13T01:54:30.826Z,7.03
2023-02-13T01:57:16.228Z,7.03
2023-02-13T01:59:55.441Z,7.00
2023-02-13T02:02:23.741Z,6.98
2023-02-13T02:04:51.536Z,6.99
2023-02-13T02:07:31.863Z,6.95
2023-02-13T02:10:09.896Z,6.94
2023-02-13T02:13:03.470Z,6.92
2023-02-13T02:15:31.870Z,6.94
2023-02-13T02:17:59.390Z,6.93
2023-02-13T02:21:15.939Z,6.96
2023-02-13T02:23:58.461Z,6.95
2023-02-13T02:26:58.582Z,6.97
2023-02-13T02:29:49.643Z,7.01
2023-02-13T02:32:43.785Z,7.04
2023-02-13T02:35:34.978Z,7.05
2023-02-13T02:38:46.437Z,7.03
2023-02-13T02:41:43.131Z,7.03
2023-02-13T02:44:54.911Z,7.01
2023-02-13T02:47:50.716Z,6.97
2023-02-13T02:50:37.774Z,6.97
2023-02-13T02:53:14.363Z,7.01
2023-02-13T02:55:48.746Z,6.99
2023-02-13T02:58:52.587Z,7.01
2023-02-13T03:01:42.599Z,6.99
2023-02-13T03:04:57.221Z,6.94
2023-02-13T03:07:24.514Z,6.94
2023-02-13T03:10:18.563Z,6.94
2023-02-13T03:13:20.392Z,6.92
2023-02-13T03:16:18.133Z,6.87
2023-02-13T03:19:12.182Z,6.90
2023-02-13T03:22:20.826Z,6.86
2023-02-13T03:25:34.247Z,6.81
2023-02-13T03:28:52.085Z,6.84
2023-02-13T03:31:23.000Z,6.82
2023-02-13T03:34:20.819Z,6.78
2023-02-13T03:37:20.278Z,6.78
2023-02-13T03:40:01.158Z,6.77
2023-02-13T03:42:42.795Z,6.75
2023-02-13T03:45:37.857Z,6.81
2023-02-13T03:48:09.734Z,6.86
2023-02-13T03:50:43.377Z,6.86
2023-02-13T03:53:14.151Z,6.87
2023-02-13T03:56:04.572Z,6.94
2023-02-13T03:59:00.240Z,6.94
2023-02-13T04:01:31.602Z,6.91
2023-02-13T04:04:27.871Z,6.96
2023-02-13T04:07:08.337Z,6.93
2023-02-13T04:09:41.813Z,6.93
2023-02-13T04:12:22.283Z,6.97
2023-02-13T04:14:58.491Z,6.96
2023-02-13T04:17:39.800Z,6.96
2023-02-13T04:20:08.569Z,6.98
2023-02-13T04:22:42.216Z,6.97
2023-02-13T04:25:10.549Z,6.98
2023-02-13T04:27:37.767Z,6.99
2023-02-13T04:30:06.250Z,6.98
2023-02-13T04:32:33.480Z,6.96
2023-02-13T04:35:00.463Z,6.97
2023-02-13T04:37:27.683Z,6.95
2023-02-13T04:39:54.733Z,6.97
2023-02-13T04:42:21.645Z,6.96
2023-02-13T04:44:48.816Z,6.95
2023-02-13T04:47:15.844Z,6.88
2023-02-13T04:49:42.748Z,6.92
2023-02-13T04:52:09.713Z,6.87
2023-02-13T04:54:36.706Z,6.84
2023-02-13T04:57:03.793Z,6.86
2023-02-13T04:59:30.755Z,6.81
2023-02-13T05:01:59.293Z,6.81
2023-02-13T05:04:26.452Z,6.82
2023-02-13T05:06:53.563Z,6.83
2023-02-13T05:09:20.814Z,6.80
2023-02-13T05:11:47.734Z,6.82
2023-02-13T05:14:14.718Z,6.78
2023-02-13T05:16:41.754Z,6.79
2023-02-13T05:19:09.015Z,6.82
2023-02-13T05:21:55.240Z,6.82
2023-02-13T05:24:22.285Z,6.79
2023-02-13T05:26:49.272Z,6.80
2023-02-13T05:29:19.093Z,6.83
2023-02-13T05:31:53.068Z,6.83
2023-02-13T05:34:22.777Z,6.79
2023-02-13T05:36:50.084Z,6.79
2023-02-13T05:39:18.016Z,6.75
2023-02-13T05:41:46.868Z,6.72
2023-02-13T05:44:15.286Z,6.69
2023-02-13T05:46:45.012Z,6.67
2023-02-13T05:49:14.982Z,6.66
2023-02-13T05:51:43.430Z,6.68
2023-02-13T05:54:10.360Z,6.68
2023-02-13T05:56:37.702Z,6.71
2023-02-13T05:59:04.711Z,6.73
2023-02-13T06:01:32.085Z,6.75
2023-02-13T06:04:00.958Z,6.72
2023-02-13T06:06:29.801Z,6.75
2023-02-13T06:08:56.973Z,6.73
2023-02-13T06:11:24.061Z,6.78
2023-02-13T06:13:51.222Z,6.79
2023-02-13T06:16:18.311Z,6.75
2023-02-13T06:18:45.472Z,6.80
2023-02-13T06:21:12.456Z,6.80
2023-02-13T06:23:39.519Z,6.77
2023-02-13T06:26:10.126Z,6.78
2023-02-13T06:28:37.851Z,6.75
2023-02-13T06:31:05.475Z,6.74
2023-02-13T06:33:35.196Z,6.72
2023-02-13T06:36:05.526Z,6.71
2023-02-13T06:38:32.653Z,6.65
2023-02-13T06:41:04.702Z,6.65
2023-02-13T06:43:31.750Z,6.64
2023-02-13T06:45:59.059Z,6.62
2023-02-13T06:48:26.359Z,6.60
2023-02-13T06:50:53.517Z,6.62
2023-02-13T06:53:24.915Z,6.64
2023-02-13T06:55:56.845Z,6.64
2023-02-13T06:58:25.576Z,6.60
2023-02-13T07:00:53.218Z,6.61
2023-02-13T07:03:20.310Z,6.61
2023-02-13T07:05:47.608Z,6.62
2023-02-13T07:08:14.750Z,6.61
2023-02-13T07:10:42.573Z,6.61
2023-02-13T07:13:10.157Z,6.63
2023-02-13T07:15:38.351Z,6.66
2023-02-13T07:18:05.856Z,6.69
2023-02-13T07:20:33.417Z,6.70
2023-02-13T07:23:03.013Z,6.73
2023-02-13T07:25:30.556Z,6.73
2023-02-13T07:28:03.780Z,6.76
2023-02-13T07:30:32.392Z,6.81
2023-02-13T07:33:04.335Z,6.83
2023-02-13T07:35:32.169Z,6.86
2023-02-13T07:38:00.776Z,6.85
2023-02-13T07:40:28.326Z,6.85
2023-02-13T07:42:56.342Z,6.88
2023-02-13T07:45:23.385Z,6.89
2023-02-13T07:47:50.407Z,6.96
2023-02-13T07:50:17.759Z,7.02
2023-02-13T07:52:44.919Z,7.06
2023-02-13T07:55:11.848Z,7.15
2023-02-13T07:57:38.917Z,7.15
2023-02-13T08:00:07.177Z,7.15
2023-02-13T08:02:38.715Z,7.16
2023-02-13T08:05:06.595Z,7.22
2023-02-13T08:07:34.062Z,7.28
2023-02-13T08:10:19.690Z,7.36
2023-02-13T08:12:47.333Z,7.44
2023-02-13T08:15:15.759Z,7.51
2023-02-13T08:17:42.831Z,7.56
2023-02-13T08:20:10.729Z,7.61
2023-02-13T08:22:39.467Z,7.69
2023-02-13T08:25:07.364Z,7.75
2023-02-13T08:27:34.401Z,7.83
2023-02-13T08:30:04.229Z,7.88
2023-02-13T08:32:35.443Z,7.95
2023-02-13T08:35:06.798Z,8.03
2023-02-13T08:37:34.029Z,8.10
2023-02-13T08:40:01.167Z,8.21
2023-02-13T08:42:28.228Z,8.22
2023-02-13T08:44:55.185Z,8.30
2023-02-13T08:47:22.348Z,8.29
2023-02-13T08:49:49.423Z,8.32
2023-02-13T08:52:16.370Z,8.33
2023-02-13T08:54:43.879Z,8.32
2023-02-13T08:57:10.872Z,8.37
2023-02-13T08:59:38.192Z,8.45
2023-02-13T09:02:05.090Z,8.51
2023-02-13T09:04:32.225Z,8.55
2023-02-13T09:06:59.213Z,8.64
2023-02-13T09:09:26.163Z,8.74
2023-02-13T09:11:56.091Z,8.82
2023-02-13T09:14:25.048Z,8.86
2023-02-13T09:16:52.178Z,8.85
2023-02-13T09:19:19.492Z,8.88
2023-02-13T09:21:46.526Z,8.90
2023-02-13T09:24:13.553Z,8.94
2023-02-13T09:26:40.764Z,8.92
2023-02-13T09:29:07.893Z,8.94
2023-02-13T09:31:34.990Z,8.95
2023-02-13T09:34:02.121Z,8.97
2023-02-13T09:36:29.304Z,9.02
2023-02-13T09:38:57.779Z,9.09
2023-02-13T09:41:36.205Z,9.10
2023-02-13T09:44:42.505Z,9.13
2023-02-13T09:47:25.941Z,9.15
2023-02-13T09:49:58.341Z,9.20
2023-02-13T09:52:28.872Z,9.32
2023-02-13T09:54:55.835Z,9.38
2023-02-13T09:57:37.119Z,9.43
2023-02-13T10:00:19.088Z,9.52
2023-02-13T10:03:13.406Z,9.57
2023-02-13T10:06:19.615Z,9.66
2023-02-13T10:09:02.840Z,9.70
2023-02-13T10:12:04.568Z,9.77
2023-02-13T10:14:59.891Z,9.84
2023-02-13T10:17:38.956Z,9.90
2023-02-13T10:20:29.638Z,9.97
2023-02-13T10:23:29.505Z,10.03
2023-02-13T10:26:07.524Z,10.07
2023-02-13T10:29:31.194Z,10.13
2023-02-13T10:32:02.504Z,10.14
2023-02-13T10:34:37.982Z,10.15
2023-02-13T10:37:18.671Z,10.19
2023-02-13T10:39:52.166Z,10.19
2023-02-13T10:42:59.501Z,10.29
2023-02-13T10:45:51.610Z,10.33
2023-02-13T10:48:36.709Z,10.41
2023-02-13T10:51:45.601Z,10.44
2023-02-13T10:54:34.695Z,10.44
2023-02-13T10:57:28.894Z,10.49
2023-02-13T11:00:12.392Z,10.52
2023-02-13T11:02:41.227Z,10.52
2023-02-13T11:05:22.209Z,10.56
2023-02-13T11:07:49.927Z,10.58
2023-02-13T11:10:22.859Z,10.65
2023-02-13T11:12:51.040Z,10.68
2023-02-13T11:15:31.231Z,10.74
2023-02-13T11:18:11.368Z,10.86
2023-02-13T11:20:44.471Z,10.98
2023-02-13T11:23:30.624Z,11.14
2023-02-13T11:26:22.924Z,11.25
2023-02-13T11:29:17.756Z,11.41
2023-02-13T11:31:45.517Z,11.46
2023-02-13T11:34:31.997Z,11.49
2023-02-13T11:37:17.721Z,11.54
2023-02-13T11:39:50.130Z,11.60
2023-02-13T11:42:31.697Z,11.62
2023-02-13T11:45:03.914Z,11.66
2023-02-13T11:47:42.472Z,11.68
2023-02-13T11:50:40.313Z,11.64
2023-02-13T11:53:22.824Z,11.58
2023-02-13T11:56:12.016Z,11.53
2023-02-13T11:58:40.488Z,11.52
2023-02-13T12:01:21.828Z,11.50
2023-02-13T12:04:05.092Z,11.49
2023-02-13T12:06:39.622Z,11.40
2023-02-13T12:09:15.929Z,11.44
2023-02-13T12:11:48.536Z,11.35
2023-02-13T12:14:28.062Z,11.35
2023-02-13T12:17:10.813Z,11.36
2023-02-13T12:19:46.378Z,11.36
2023-02-13T12:22:35.198Z,11.36
2023-02-13T12:25:30.282Z,11.37
2023-02-13T12:28:07.871Z,11.30
2023-02-13T12:31:08.306Z,11.26
2023-02-13T12:34:26.499Z,11.06
2023-02-13T12:37:21.280Z,11.02
2023-02-13T12:40:16.968Z,10.91
2023-02-13T12:43:29.164Z,10.78
2023-02-13T12:46:20.928Z,10.74
2023-02-13T12:49:15.449Z,10.77
2023-02-13T12:52:24.056Z,10.70
2023-02-13T12:55:22.265Z,10.60
2023-02-13T12:58:29.426Z,10.51
2023-02-13T13:01:45.052Z,10.43
2023-02-13T13:04:36.423Z,10.40
2023-02-13T13:07:38.728Z,10.50
2023-02-13T13:10:33.317Z,10.55
2023-02-13T13:13:33.987Z,10.55
2023-02-13T13:16:31.954Z,10.62
2023-02-13T13:19:29.865Z,10.67
2023-02-13T13:22:08.869Z,10.62
2023-02-13T13:24:54.666Z,10.62
2023-02-13T13:27:32.679Z,10.55
2023-02-13T13:30:34.654Z,10.50
2023-02-13T13:33:24.897Z,10.49
2023-02-13T13:36:27.673Z,10.45
2023-02-13T13:39:05.995Z,10.46
2023-02-13T13:41:45.935Z,10.46
2023-02-13T13:45:05.973Z,10.38
2023-02-13T13:47:59.535Z,10.33
2023-02-13T13:50:30.733Z,10.26
2023-02-13T13:53:19.743Z,10.27
2023-02-13T13:55:52.844Z,10.23
2023-02-13T13:58:31.683Z,10.20
2023-02-13T14:01:30.514Z,10.18
2023-02-13T14:04:03.706Z,10.12
2023-02-13T14:06:45.920Z,10.06
2023-02-13T14:09:43.572Z,10.00
2023-02-13T14:12:25.813Z,9.98
2023-02-13T14:14:54.297Z,9.93
2023-02-13T14:17:46.172Z,9.86
2023-02-13T14:20:34.632Z,9.80
2023-02-13T14:23:32.149Z,9.73
2023-02-13T14:26:17.319Z,9.71
2023-02-13T14:28:56.948Z,9.67
2023-02-13T14:31:39.563Z,9.66
2023-02-13T14:34:14.292Z,9.70
2023-02-13T14:36:46.564Z,9.72
2023-02-13T14:39:16.829Z,9.75
2023-02-13T14:41:55.682Z,9.75
2023-02-13T14:44:48.564Z,9.73
2023-02-13T14:47:23.196Z,9.70
2023-02-13T14:49:51.852Z,9.78
2023-02-13T14:52:27.665Z,9.77
2023-02-13T14:55:05.624Z,9.75
2023-02-13T14:57:46.137Z,9.73
2023-02-13T15:00:41.180Z,9.74
2023-02-13T15:03:37.854Z,9.69
2023-02-13T15:06:14.099Z,9.67
2023-02-13T15:08:51.709Z,9.63
2023-02-13T15:11:43.172Z,9.61
2023-02-13T15:14:36.771Z,9.52
2023-02-13T15:17:13.632Z,9.45
2023-02-13T15:19:47.162Z,9.37
2023-02-13T15:22:37.540Z,9.33
2023-02-13T15:25:07.663Z,9.33
2023-02-13T15:27:41.878Z,9.25
2023-02-13T15:30:33.517Z,9.25
2023-02-13T15:33:18.253Z,9.14
2023-02-13T15:35:45.688Z,9.07
2023-02-13T15:38:25.373Z,9.03
2023-02-13T15:40:59.223Z,8.96
2023-02-13T15:43:35.821Z,8.92
2023-02-13T15:46:28.015Z,8.87
2023-02-13T15:48:58.271Z,8.84
2023-02-13T15:51:30.475Z,8.84
2023-02-13T15:54:03.493Z,8.81
2023-02-13T15:56:31.401Z,8.80
2023-02-13T15:59:00.198Z,8.81
2023-02-13T16:01:29.293Z,8.82
2023-02-13T16:04:06.654Z,8.80
2023-02-13T16:06:34.464Z,8.77
2023-02-13T16:09:02.062Z,8.76
2023-02-13T16:11:36.554Z,8.75
2023-02-13T16:14:06.564Z,8.71
2023-02-13T16:16:57.319Z,8.63
2023-02-13T16:19:39.432Z,8.55
2023-02-13T16:22:41.039Z,8.53
2023-02-13T16:25:14.202Z,8.48
2023-02-13T16:27:49.057Z,8.43
2023-02-13T16:30:33.942Z,8.39
2023-02-13T16:33:18.169Z,8.32
2023-02-13T16:35:55.119Z,8.33
2023-02-13T16:38:39.999Z,8.32
2023-02-13T16:41:26.863Z,8.28
2023-02-13T16:43:58.192Z,8.28
2023-02-13T16:46:33.823Z,8.27
2023-02-13T16:49:14.750Z,8.20
2023-02-13T16:52:08.513Z,8.18
2023-02-13T16:54:44.782Z,8.19
2023-02-13T16:57:14.723Z,8.16
2023-02-13T16:59:47.732Z,8.13
2023-02-13T17:02:38.162Z,8.08
2023-02-13T17:05:08.373Z,8.07
2023-02-13T17:07:44.242Z,8.06
2023-02-13T17:10:20.679Z,8.04
2023-02-13T17:12:49.850Z,7.98
2023-02-13T17:15:23.913Z,7.96
2023-02-13T17:17:51.732Z,7.97
2023-02-13T17:20:26.516Z,7.93
2023-02-13T17:22:57.642Z,7.91
2023-02-13T17:25:37.483Z,7.93
2023-02-13T17:28:18.842Z,7.93
2023-02-13T17:30:47.324Z,7.88
2023-02-13T17:33:22.528Z,7.85
2023-02-13T17:35:50.160Z,7.84
2023-02-13T17:38:17.799Z,7.84
2023-02-13T17:40:46.090Z,7.82
2023-02-13T17:43:16.949Z,7.82
2023-02-13T17:45:45.316Z,7.82
2023-02-13T17:48:12.638Z,7.77
2023-02-13T17:50:39.873Z,7.81
2023-02-13T17:53:29.869Z,7.82
2023-02-13T17:55:57.180Z,7.77
2023-02-13T17:58:24.381Z,7.73
2023-02-13T18:00:51.756Z,7.73
2023-02-13T18:03:18.790Z,7.72
2023-02-13T18:05:48.655Z,7.68
2023-02-13T18:08:16.281Z,7.71
2023-02-13T18:10:43.262Z,7.69
2023-02-13T18:13:10.346Z,7.67
2023-02-13T18:15:43.848Z,7.66
2023-02-13T18:18:13.480Z,7.65
2023-02-13T18:20:40.690Z,7.64
2023-02-13T18:23:09.056Z,7.63
2023-02-13T18:25:36.402Z,7.61
2023-02-13T18:28:03.716Z,7.64
2023-02-13T18:30:30.887Z,7.63
2023-02-13T18:32:59.164Z,7.61
2023-02-13T18:35:26.269Z,7.60
2023-02-13T18:37:53.400Z,7.52
2023-02-13T18:40:20.586Z,7.52
2023-02-13T18:42:49.659Z,7.48
2023-02-13T18:45:17.447Z,7.48
2023-02-13T18:47:44.559Z,7.45
2023-02-13T18:50:11.823Z,7.40
2023-02-13T18:52:38.759Z,7.39
2023-02-13T18:55:07.210Z,7.42
2023-02-13T18:57:35.018Z,7.36
2023-02-13T19:00:03.919Z,7.33
2023-02-13T19:02:33.360Z,7.29
2023-02-13T19:05:01.206Z,7.27
2023-02-13T19:07:28.477Z,7.30
2023-02-13T19:09:55.902Z,7.29
2023-02-13T19:12:22.979Z,7.26
2023-02-13T19:14:49.949Z,7.25
2023-02-13T19:17:17.051Z,7.20
2023-02-13T19:19:46.449Z,7.18
2023-02-13T19:22:13.367Z,7.14
2023-02-13T19:24:41.475Z,7.13
2023-02-13T19:27:08.542Z,7.07
2023-02-13T19:29:35.437Z,7.08
2023-02-13T19:32:02.400Z,7.09
2023-02-13T19:34:29.821Z,7.08
2023-02-13T19:36:56.994Z,7.09
2023-02-13T19:39:23.975Z,7.07
2023-02-13T19:41:51.283Z,7.03
2023-02-13T19:44:18.257Z,6.94
2023-02-13T19:46:45.418Z,6.93
2023-02-13T19:49:12.581Z,6.92
2023-02-13T19:51:41.993Z,6.76
2023-02-13T19:54:10.990Z,6.69
2023-02-13T19:56:39.590Z,6.58
2023-02-13T19:59:08.882Z,6.47
2023-02-13T20:01:35.990Z,6.36
2023-02-13T20:04:03.169Z,6.22
2023-02-13T20:06:37.321Z,6.15
2023-02-13T20:09:12.620Z,5.96
2023-02-13T20:11:41.539Z,5.87
2023-02-13T20:14:14.564Z,5.72
2023-02-13T20:16:42.948Z,5.64
2023-02-13T20:19:11.644Z,5.53
2023-02-13T20:21:41.371Z,5.41
2023-02-13T20:24:10.529Z,5.35
2023-02-13T20:26:38.833Z,5.23
2023-02-13T20:29:06.296Z,5.20
2023-02-13T20:31:34.422Z,5.12
2023-02-13T20:34:02.295Z,5.08
2023-02-13T20:36:31.596Z,4.97
2023-02-13T20:39:02.953Z,4.90
2023-02-13T20:41:33.417Z,4.85
2023-02-13T20:44:04.527Z,4.76
2023-02-13T20:46:34.419Z,4.72
2023-02-13T20:49:01.722Z,4.68
2023-02-13T20:51:29.723Z,4.61
2023-02-13T20:53:57.495Z,4.51
2023-02-13T20:56:26.273Z,4.46
2023-02-13T20:58:56.806Z,4.41
2023-02-13T21:01:32.402Z,4.35
2023-02-13T21:04:00.570Z,4.27
2023-02-13T21:06:31.522Z,4.23
2023-02-13T21:08:58.985Z,4.12
2023-02-13T21:11:28.433Z,4.09
2023-02-13T21:13:57.478Z,4.06
2023-02-13T21:16:28.627Z,4.01
2023-02-13T21:18:58.852Z,3.95
2023-02-13T21:21:30.006Z,3.93
2023-02-13T21:24:00.810Z,3.86
2023-02-13T21:26:29.598Z,3.81
2023-02-13T21:28:57.974Z,3.76
2023-02-13T21:31:29.270Z,3.76
2023-02-13T21:34:03.049Z,3.71
2023-02-13T21:36:31.719Z,3.68
2023-02-13T21:38:59.556Z,3.72
2023-02-13T21:41:27.243Z,3.74
2023-02-13T21:43:54.483Z,3.71
2023-02-13T21:46:31.367Z,3.67
2023-02-13T21:49:03.923Z,3.65
2023-02-13T21:51:33.583Z,3.62
2023-02-13T21:54:01.181Z,3.56
2023-02-13T21:56:31.518Z,3.55
2023-02-13T21:58:59.091Z,3.48
2023-02-13T22:01:30.439Z,3.48
2023-02-13T22:04:17.152Z,3.48
2023-02-13T22:06:50.903Z,3.45
2023-02-13T22:09:20.230Z,3.44
2023-02-13T22:11:47.449Z,3.44
2023-02-13T22:14:17.519Z,3.41
2023-02-13T22:16:45.746Z,3.41
2023-02-13T22:19:15.739Z,3.40
2023-02-13T22:21:43.906Z,3.33
2023-02-13T22:24:11.495Z,3.31
2023-02-13T22:26:41.350Z,3.31
2023-02-13T22:29:12.150Z,3.32
2023-02-13T22:31:39.365Z,3.29
2023-02-13T22:34:06.727Z,3.24
2023-02-13T22:36:38.834Z,3.23
2023-02-13T22:39:07.548Z,3.24
2023-02-13T22:41:34.630Z,3.20
2023-02-13T22:44:01.847Z,3.18
2023-02-13T22:46:33.091Z,3.14
2023-02-13T22:49:00.702Z,3.16
2023-02-13T22:51:35.131Z,3.08
2023-02-13T22:54:03.088Z,3.08
2023-02-13T22:56:31.336Z,3.04
2023-02-13T22:58:59.533Z,2.99
2023-02-13T23:01:28.186Z,2.93
2023-02-13T23:03:56.241Z,2.92
2023-02-13T23:06:24.554Z,2.88
2023-02-13T23:08:55.000Z,2.83
2023-02-13T23:11:45.116Z,2.79
2023-02-13T23:14:12.944Z,2.77
2023-02-13T23:17:00.146Z,2.77
2023-02-13T23:19:27.602Z,2.68
2023-02-13T23:21:54.813Z,2.62
2023-02-13T23:24:21.790Z,2.55
2023-02-13T23:26:48.773Z,2.56
2023-02-13T23:29:15.713Z,2.51
2023-02-13T23:31:42.917Z,2.47
2023-02-13T23:34:10.078Z,2.40
2023-02-13T23:36:36.982Z,2.35
2023-02-13T23:39:04.152Z,2.36
2023-02-13T23:41:31.139Z,2.37
2023-02-13T23:43:58.052Z,2.31
2023-02-13T23:46:25.078Z,2.26
2023-02-13T23:48:52.174Z,2.27
2023-02-13T23:51:21.164Z,2.21
2023-02-13T23:53:48.164Z,2.19
2023-02-13T23:56:15.423Z,2.12
2023-02-13T23:58:42.355Z,2.06
